Terminal Aerodrome Forecast
Issued by NWS

Home | Current Version | Previous Version | Graphics & Text | Print | Product List | Glossary On
Versions: 1 2 3 4 5 6 7 8 9 10 11 12
000
FTUS43 KGRB 241100
TAFAUW
TAF
KAUW 241126Z 2412/2512 13004KT P6SM SCT080 BKN150
     FM241600 13007KT P6SM SCT070 BKN100
     FM242100 11008KT P6SM SCT035 OVC060 PROB30 2423/2505 -RA
     FM250800 10008KT P6SM SCT040 OVC070=

USA.gov is the U.S. government's official web portal to all federal, state and local government web resources and services.